sensor_id;sensor_type;location;lat;lon;timestamp;P1;durP1;ratioP1;P2;durP2;ratioP2
74528;SDS011;63009;52.584;5.932;2023-04-24T00:00:02;6.30;;;2.23;;
74528;SDS011;63009;52.584;5.932;2023-04-24T00:02:32;5.75;;;2.17;;
74528;SDS011;63009;52.584;5.932;2023-04-24T00:04:58;6.68;;;2.40;;
74528;SDS011;63009;52.584;5.932;2023-04-24T00:07:27;6.63;;;2.38;;
74528;SDS011;63009;52.584;5.932;2023-04-24T00:09:56;6.85;;;2.60;;
74528;SDS011;63009;52.584;5.932;2023-04-24T00:12:22;7.00;;;2.85;;
74528;SDS011;63009;52.584;5.932;2023-04-24T00:14:47;6.87;;;2.63;;
74528;SDS011;63009;52.584;5.932;2023-04-24T00:17:12;7.67;;;2.70;;
74528;SDS011;63009;52.584;5.932;2023-04-24T00:19:38;8.45;;;2.92;;
74528;SDS011;63009;52.584;5.932;2023-04-24T00:22:03;7.40;;;3.03;;
74528;SDS011;63009;52.584;5.932;2023-04-24T00:24:28;7.47;;;3.20;;
74528;SDS011;63009;52.584;5.932;2023-04-24T00:26:54;7.15;;;2.88;;
74528;SDS011;63009;52.584;5.932;2023-04-24T00:29:19;7.15;;;2.88;;
74528;SDS011;63009;52.584;5.932;2023-04-24T00:31:44;7.87;;;3.43;;
74528;SDS011;63009;52.584;5.932;2023-04-24T00:34:10;8.10;;;3.38;;
74528;SDS011;63009;52.584;5.932;2023-04-24T00:36:36;7.90;;;3.45;;
74528;SDS011;63009;52.584;5.932;2023-04-24T00:39:02;8.55;;;3.72;;
74528;SDS011;63009;52.584;5.932;2023-04-24T00:41:27;9.88;;;3.85;;
74528;SDS011;63009;52.584;5.932;2023-04-24T00:43:52;8.30;;;3.90;;
74528;SDS011;63009;52.584;5.932;2023-04-24T00:46:18;8.85;;;3.80;;
74528;SDS011;63009;52.584;5.932;2023-04-24T00:48:44;8.98;;;3.78;;
74528;SDS011;63009;52.584;5.932;2023-04-24T00:51:10;9.82;;;5.32;;
74528;SDS011;63009;52.584;5.932;2023-04-24T00:53:35;9.98;;;4.70;;
74528;SDS011;63009;52.584;5.932;2023-04-24T00:56:01;10.43;;;5.13;;
74528;SDS011;63009;52.584;5.932;2023-04-24T00:58:27;9.60;;;4.53;;
74528;SDS011;63009;52.584;5.932;2023-04-24T01:00:52;8.88;;;4.57;;
74528;SDS011;63009;52.584;5.932;2023-04-24T01:03:20;8.27;;;4.30;;
74528;SDS011;63009;52.584;5.932;2023-04-24T01:05:47;8.35;;;4.20;;
74528;SDS011;63009;52.584;5.932;2023-04-24T01:08:14;8.95;;;4.32;;
74528;SDS011;63009;52.584;5.932;2023-04-24T01:10:41;8.68;;;4.07;;
74528;SDS011;63009;52.584;5.932;2023-04-24T01:13:09;8.07;;;4.03;;
74528;SDS011;63009;52.584;5.932;2023-04-24T01:15:35;7.63;;;3.70;;
74528;SDS011;63009;52.584;5.932;2023-04-24T01:18:00;8.00;;;3.72;;
74528;SDS011;63009;52.584;5.932;2023-04-24T01:20:25;7.95;;;3.72;;
74528;SDS011;63009;52.584;5.932;2023-04-24T01:22:51;7.68;;;3.40;;
74528;SDS011;63009;52.584;5.932;2023-04-24T01:25:18;6.90;;;2.78;;
74528;SDS011;63009;52.584;5.932;2023-04-24T01:27:43;6.73;;;2.80;;
74528;SDS011;63009;52.584;5.932;2023-04-24T01:30:09;6.22;;;2.50;;
74528;SDS011;63009;52.584;5.932;2023-04-24T01:32:35;6.50;;;2.67;;
74528;SDS011;63009;52.584;5.932;2023-04-24T01:35:01;6.43;;;2.60;;
74528;SDS011;63009;52.584;5.932;2023-04-24T01:37:27;6.47;;;2.35;;
74528;SDS011;63009;52.584;5.932;2023-04-24T01:39:52;6.93;;;2.23;;
74528;SDS011;63009;52.584;5.932;2023-04-24T01:42:18;5.53;;;1.90;;
74528;SDS011;63009;52.584;5.932;2023-04-24T01:44:43;5.38;;;1.92;;
74528;SDS011;63009;52.584;5.932;2023-04-24T01:47:09;5.97;;;2.03;;
74528;SDS011;63009;52.584;5.932;2023-04-24T01:49:35;5.75;;;2.13;;
74528;SDS011;63009;52.584;5.932;2023-04-24T01:52:03;5.60;;;1.92;;
74528;SDS011;63009;52.584;5.932;2023-04-24T01:54:29;5.43;;;1.92;;
74528;SDS011;63009;52.584;5.932;2023-04-24T01:56:54;5.57;;;1.95;;
74528;SDS011;63009;52.584;5.932;2023-04-24T01:59:20;4.50;;;1.60;;
74528;SDS011;63009;52.584;5.932;2023-04-24T02:01:46;6.95;;;2.00;;
74528;SDS011;63009;52.584;5.932;2023-04-24T02:04:11;6.03;;;2.10;;
74528;SDS011;63009;52.584;5.932;2023-04-24T02:06:37;5.53;;;1.95;;
74528;SDS011;63009;52.584;5.932;2023-04-24T02:09:02;6.40;;;2.40;;
74528;SDS011;63009;52.584;5.932;2023-04-24T02:11:28;6.18;;;2.50;;
74528;SDS011;63009;52.584;5.932;2023-04-24T02:13:53;6.00;;;1.90;;
74528;SDS011;63009;52.584;5.932;2023-04-24T02:16:19;5.93;;;2.22;;
74528;SDS011;63009;52.584;5.932;2023-04-24T02:18:44;5.82;;;2.17;;
74528;SDS011;63009;52.584;5.932;2023-04-24T02:21:10;5.87;;;2.07;;
74528;SDS011;63009;52.584;5.932;2023-04-24T02:23:35;5.90;;;2.10;;
74528;SDS011;63009;52.584;5.932;2023-04-24T02:26:00;6.40;;;2.30;;
74528;SDS011;63009;52.584;5.932;2023-04-24T02:28:26;5.83;;;2.07;;
74528;SDS011;63009;52.584;5.932;2023-04-24T02:30:51;6.60;;;2.00;;
74528;SDS011;63009;52.584;5.932;2023-04-24T02:33:16;5.47;;;1.70;;
74528;SDS011;63009;52.584;5.932;2023-04-24T02:35:41;3.80;;;1.20;;
74528;SDS011;63009;52.584;5.932;2023-04-24T02:38:07;4.90;;;2.03;;
74528;SDS011;63009;52.584;5.932;2023-04-24T02:40:32;3.37;;;1.20;;
74528;SDS011;63009;52.584;5.932;2023-04-24T02:42:57;4.70;;;1.37;;
74528;SDS011;63009;52.584;5.932;2023-04-24T02:45:22;3.87;;;1.40;;
74528;SDS011;63009;52.584;5.932;2023-04-24T02:47:48;5.50;;;1.55;;
74528;SDS011;63009;52.584;5.932;2023-04-24T02:50:13;4.80;;;1.60;;
74528;SDS011;63009;52.584;5.932;2023-04-24T02:52:38;6.23;;;1.97;;
74528;SDS011;63009;52.584;5.932;2023-04-24T02:55:04;5.27;;;1.80;;
74528;SDS011;63009;52.584;5.932;2023-04-24T02:57:29;5.13;;;1.83;;
74528;SDS011;63009;52.584;5.932;2023-04-24T02:59:55;5.17;;;1.70;;
74528;SDS011;63009;52.584;5.932;2023-04-24T03:02:20;2.93;;;1.30;;
74528;SDS011;63009;52.584;5.932;2023-04-24T03:04:45;2.93;;;1.10;;
74528;SDS011;63009;52.584;5.932;2023-04-24T03:07:12;3.40;;;1.00;;
74528;SDS011;63009;52.584;5.932;2023-04-24T03:09:39;2.70;;;0.93;;
74528;SDS011;63009;52.584;5.932;2023-04-24T03:12:06;1.77;;;0.80;;
74528;SDS011;63009;52.584;5.932;2023-04-24T03:14:31;2.28;;;0.73;;
74528;SDS011;63009;52.584;5.932;2023-04-24T03:16:57;2.10;;;0.77;;
74528;SDS011;63009;52.584;5.932;2023-04-24T03:19:22;1.90;;;0.80;;
74528;SDS011;63009;52.584;5.932;2023-04-24T03:21:48;2.40;;;0.80;;
74528;SDS011;63009;52.584;5.932;2023-04-24T03:24:13;1.63;;;0.75;;
74528;SDS011;63009;52.584;5.932;2023-04-24T03:26:38;1.67;;;0.60;;
74528;SDS011;63009;52.584;5.932;2023-04-24T03:29:04;1.67;;;0.63;;
74528;SDS011;63009;52.584;5.932;2023-04-24T03:31:29;1.53;;;0.70;;
74528;SDS011;63009;52.584;5.932;2023-04-24T03:33:54;1.45;;;0.70;;
74528;SDS011;63009;52.584;5.932;2023-04-24T03:36:20;1.67;;;0.60;;
74528;SDS011;63009;52.584;5.932;2023-04-24T03:38:45;1.97;;;0.70;;
74528;SDS011;63009;52.584;5.932;2023-04-24T03:41:10;1.53;;;0.80;;
74528;SDS011;63009;52.584;5.932;2023-04-24T03:43:36;2.58;;;1.00;;
74528;SDS011;63009;52.584;5.932;2023-04-24T03:46:02;2.00;;;0.98;;
74528;SDS011;63009;52.584;5.932;2023-04-24T03:48:28;3.08;;;0.90;;
74528;SDS011;63009;52.584;5.932;2023-04-24T03:50:53;3.40;;;1.47;;
74528;SDS011;63009;52.584;5.932;2023-04-24T03:53:19;2.97;;;1.00;;
74528;SDS011;63009;52.584;5.932;2023-04-24T03:55:44;3.58;;;1.00;;
74528;SDS011;63009;52.584;5.932;2023-04-24T03:58:10;3.35;;;1.00;;
74528;SDS011;63009;52.584;5.932;2023-04-24T04:00:36;3.60;;;1.20;;
74528;SDS011;63009;52.584;5.932;2023-04-24T04:03:02;4.57;;;1.20;;
74528;SDS011;63009;52.584;5.932;2023-04-24T04:05:28;4.93;;;1.30;;
74528;SDS011;63009;52.584;5.932;2023-04-24T04:07:53;3.88;;;1.15;;
74528;SDS011;63009;52.584;5.932;2023-04-24T04:10:18;3.77;;;1.20;;
74528;SDS011;63009;52.584;5.932;2023-04-24T04:12:44;5.28;;;1.30;;
74528;SDS011;63009;52.584;5.932;2023-04-24T04:15:09;5.60;;;1.57;;
74528;SDS011;63009;52.584;5.932;2023-04-24T04:17:35;4.57;;;1.40;;
74528;SDS011;63009;52.584;5.932;2023-04-24T04:20:00;4.13;;;1.30;;
74528;SDS011;63009;52.584;5.932;2023-04-24T04:22:26;4.55;;;1.48;;
74528;SDS011;63009;52.584;5.932;2023-04-24T04:24:51;5.20;;;1.67;;
74528;SDS011;63009;52.584;5.932;2023-04-24T04:27:16;7.53;;;2.03;;
74528;SDS011;63009;52.584;5.932;2023-04-24T04:29:43;6.25;;;1.92;;
74528;SDS011;63009;52.584;5.932;2023-04-24T04:32:09;5.13;;;1.50;;
74528;SDS011;63009;52.584;5.932;2023-04-24T04:34:34;4.47;;;1.30;;
74528;SDS011;63009;52.584;5.932;2023-04-24T04:36:59;5.33;;;1.83;;
74528;SDS011;63009;52.584;5.932;2023-04-24T04:39:26;5.97;;;1.77;;
74528;SDS011;63009;52.584;5.932;2023-04-24T04:41:53;5.38;;;1.42;;
74528;SDS011;63009;52.584;5.932;2023-04-24T04:44:18;6.53;;;1.83;;
74528;SDS011;63009;52.584;5.932;2023-04-24T04:46:44;6.05;;;1.50;;
74528;SDS011;63009;52.584;5.932;2023-04-24T04:49:09;4.30;;;1.60;;
74528;SDS011;63009;52.584;5.932;2023-04-24T04:51:35;4.85;;;1.50;;
74528;SDS011;63009;52.584;5.932;2023-04-24T04:54:01;4.18;;;1.40;;
74528;SDS011;63009;52.584;5.932;2023-04-24T04:56:26;4.70;;;1.40;;
74528;SDS011;63009;52.584;5.932;2023-04-24T04:58:51;5.13;;;1.60;;
74528;SDS011;63009;52.584;5.932;2023-04-24T05:01:16;6.50;;;1.80;;
74528;SDS011;63009;52.584;5.932;2023-04-24T05:03:42;6.45;;;1.50;;
74528;SDS011;63009;52.584;5.932;2023-04-24T05:06:07;5.60;;;1.65;;
74528;SDS011;63009;52.584;5.932;2023-04-24T05:08:33;5.20;;;1.87;;
74528;SDS011;63009;52.584;5.932;2023-04-24T05:10:58;4.93;;;1.53;;
74528;SDS011;63009;52.584;5.932;2023-04-24T05:13:23;5.50;;;1.80;;
74528;SDS011;63009;52.584;5.932;2023-04-24T05:15:48;5.43;;;1.65;;
74528;SDS011;63009;52.584;5.932;2023-04-24T05:18:14;5.70;;;1.47;;
74528;SDS011;63009;52.584;5.932;2023-04-24T05:20:40;5.80;;;1.52;;
74528;SDS011;63009;52.584;5.932;2023-04-24T05:23:07;4.93;;;1.50;;
74528;SDS011;63009;52.584;5.932;2023-04-24T05:25:33;5.90;;;1.60;;
74528;SDS011;63009;52.584;5.932;2023-04-24T05:28:00;6.18;;;2.10;;
74528;SDS011;63009;52.584;5.932;2023-04-24T05:30:25;4.75;;;1.58;;
74528;SDS011;63009;52.584;5.932;2023-04-24T05:32:50;6.20;;;1.70;;
74528;SDS011;63009;52.584;5.932;2023-04-24T05:35:16;6.17;;;1.60;;
74528;SDS011;63009;52.584;5.932;2023-04-24T05:37:41;4.23;;;1.53;;
74528;SDS011;63009;52.584;5.932;2023-04-24T05:40:06;5.20;;;1.30;;
74528;SDS011;63009;52.584;5.932;2023-04-24T05:42:33;6.28;;;1.67;;
74528;SDS011;63009;52.584;5.932;2023-04-24T05:44:58;3.77;;;1.20;;
74528;SDS011;63009;52.584;5.932;2023-04-24T05:47:23;4.63;;;1.60;;
74528;SDS011;63009;52.584;5.932;2023-04-24T05:49:49;5.88;;;1.50;;
74528;SDS011;63009;52.584;5.932;2023-04-24T05:52:14;5.57;;;1.70;;
74528;SDS011;63009;52.584;5.932;2023-04-24T05:54:39;5.47;;;1.63;;
74528;SDS011;63009;52.584;5.932;2023-04-24T05:57:05;6.37;;;2.00;;
74528;SDS011;63009;52.584;5.932;2023-04-24T05:59:33;7.47;;;2.20;;
74528;SDS011;63009;52.584;5.932;2023-04-24T06:01:59;8.25;;;2.20;;
74528;SDS011;63009;52.584;5.932;2023-04-24T06:04:24;7.07;;;2.33;;
74528;SDS011;63009;52.584;5.932;2023-04-24T06:06:50;7.35;;;2.28;;
74528;SDS011;63009;52.584;5.932;2023-04-24T06:09:20;7.25;;;1.98;;
74528;SDS011;63009;52.584;5.932;2023-04-24T06:11:45;8.48;;;2.63;;
74528;SDS011;63009;52.584;5.932;2023-04-24T06:14:11;8.77;;;2.63;;
74528;SDS011;63009;52.584;5.932;2023-04-24T06:16:36;8.43;;;2.97;;
74528;SDS011;63009;52.584;5.932;2023-04-24T06:19:01;7.60;;;2.40;;
74528;SDS011;63009;52.584;5.932;2023-04-24T06:21:27;9.00;;;2.70;;
74528;SDS011;63009;52.584;5.932;2023-04-24T06:23:52;11.65;;;3.10;;
74528;SDS011;63009;52.584;5.932;2023-04-24T06:26:17;7.43;;;2.72;;
74528;SDS011;63009;52.584;5.932;2023-04-24T06:28:43;7.57;;;3.30;;
74528;SDS011;63009;52.584;5.932;2023-04-24T06:31:08;8.53;;;2.80;;
74528;SDS011;63009;52.584;5.932;2023-04-24T06:33:33;7.72;;;2.92;;
74528;SDS011;63009;52.584;5.932;2023-04-24T06:35:59;8.50;;;2.60;;
74528;SDS011;63009;52.584;5.932;2023-04-24T06:38:24;9.00;;;2.85;;
74528;SDS011;63009;52.584;5.932;2023-04-24T06:40:49;9.07;;;2.63;;
74528;SDS011;63009;52.584;5.932;2023-04-24T06:43:15;7.05;;;2.30;;
74528;SDS011;63009;52.584;5.932;2023-04-24T06:45:40;8.67;;;3.53;;
74528;SDS011;63009;52.584;5.932;2023-04-24T06:48:05;7.47;;;2.43;;
74528;SDS011;63009;52.584;5.932;2023-04-24T06:50:30;7.07;;;2.60;;
74528;SDS011;63009;52.584;5.932;2023-04-24T06:52:56;11.35;;;2.70;;
74528;SDS011;63009;52.584;5.932;2023-04-24T06:55:21;7.67;;;2.57;;
74528;SDS011;63009;52.584;5.932;2023-04-24T06:57:46;7.53;;;2.77;;
74528;SDS011;63009;52.584;5.932;2023-04-24T07:00:12;7.30;;;2.60;;
74528;SDS011;63009;52.584;5.932;2023-04-24T07:02:37;7.97;;;2.47;;
74528;SDS011;63009;52.584;5.932;2023-04-24T07:05:03;8.90;;;2.50;;
74528;SDS011;63009;52.584;5.932;2023-04-24T07:07:29;7.57;;;2.40;;
74528;SDS011;63009;52.584;5.932;2023-04-24T07:09:55;7.85;;;2.42;;
74528;SDS011;63009;52.584;5.932;2023-04-24T07:12:21;7.32;;;2.80;;
74528;SDS011;63009;52.584;5.932;2023-04-24T07:14:46;7.55;;;2.50;;
74528;SDS011;63009;52.584;5.932;2023-04-24T07:17:12;8.60;;;3.33;;
74528;SDS011;63009;52.584;5.932;2023-04-24T07:19:38;8.75;;;3.30;;
74528;SDS011;63009;52.584;5.932;2023-04-24T07:22:03;9.83;;;4.17;;
74528;SDS011;63009;52.584;5.932;2023-04-24T07:24:29;11.40;;;4.13;;
74528;SDS011;63009;52.584;5.932;2023-04-24T07:26:57;9.88;;;4.35;;
74528;SDS011;63009;52.584;5.932;2023-04-24T07:29:22;15.15;;;6.25;;
74528;SDS011;63009;52.584;5.932;2023-04-24T07:31:47;13.07;;;7.03;;
74528;SDS011;63009;52.584;5.932;2023-04-24T07:34:13;15.52;;;7.00;;
74528;SDS011;63009;52.584;5.932;2023-04-24T07:36:38;17.97;;;8.13;;
74528;SDS011;63009;52.584;5.932;2023-04-24T07:39:04;19.23;;;8.77;;
74528;SDS011;63009;52.584;5.932;2023-04-24T07:41:29;17.67;;;8.07;;
74528;SDS011;63009;52.584;5.932;2023-04-24T07:43:55;17.63;;;8.45;;
74528;SDS011;63009;52.584;5.932;2023-04-24T07:46:20;17.67;;;8.87;;
74528;SDS011;63009;52.584;5.932;2023-04-24T07:48:46;17.90;;;9.15;;
74528;SDS011;63009;52.584;5.932;2023-04-24T07:51:13;17.85;;;8.23;;
74528;SDS011;63009;52.584;5.932;2023-04-24T07:53:39;14.40;;;7.30;;
74528;SDS011;63009;52.584;5.932;2023-04-24T07:56:05;12.95;;;6.53;;
74528;SDS011;63009;52.584;5.932;2023-04-24T07:58:30;14.90;;;7.00;;
74528;SDS011;63009;52.584;5.932;2023-04-24T08:00:55;13.70;;;6.73;;
74528;SDS011;63009;52.584;5.932;2023-04-24T08:03:20;14.93;;;7.40;;
74528;SDS011;63009;52.584;5.932;2023-04-24T08:05:46;14.68;;;7.05;;
74528;SDS011;63009;52.584;5.932;2023-04-24T08:08:11;13.45;;;6.82;;
74528;SDS011;63009;52.584;5.932;2023-04-24T08:10:37;14.57;;;7.40;;
74528;SDS011;63009;52.584;5.932;2023-04-24T08:13:02;16.90;;;8.02;;
74528;SDS011;63009;52.584;5.932;2023-04-24T08:15:27;16.60;;;7.30;;
74528;SDS011;63009;52.584;5.932;2023-04-24T08:17:53;17.10;;;8.02;;
74528;SDS011;63009;52.584;5.932;2023-04-24T08:20:18;16.63;;;8.33;;
74528;SDS011;63009;52.584;5.932;2023-04-24T08:22:43;15.98;;;7.63;;
74528;SDS011;63009;52.584;5.932;2023-04-24T08:25:09;18.33;;;8.20;;
74528;SDS011;63009;52.584;5.932;2023-04-24T08:27:36;14.43;;;6.82;;
74528;SDS011;63009;52.584;5.932;2023-04-24T08:30:02;15.52;;;7.32;;
74528;SDS011;63009;52.584;5.932;2023-04-24T08:32:28;15.30;;;7.45;;
74528;SDS011;63009;52.584;5.932;2023-04-24T08:34:54;19.15;;;8.43;;
74528;SDS011;63009;52.584;5.932;2023-04-24T08:37:21;14.38;;;7.07;;
74528;SDS011;63009;52.584;5.932;2023-04-24T08:39:47;20.00;;;7.30;;
74528;SDS011;63009;52.584;5.932;2023-04-24T08:42:12;12.43;;;5.60;;
74528;SDS011;63009;52.584;5.932;2023-04-24T08:44:39;14.10;;;5.20;;
74528;SDS011;63009;52.584;5.932;2023-04-24T08:47:05;14.13;;;5.55;;
74528;SDS011;63009;52.584;5.932;2023-04-24T08:49:33;15.55;;;6.45;;
74528;SDS011;63009;52.584;5.932;2023-04-24T08:52:01;11.43;;;5.63;;
74528;SDS011;63009;52.584;5.932;2023-04-24T08:54:26;15.50;;;5.25;;
74528;SDS011;63009;52.584;5.932;2023-04-24T08:56:52;19.00;;;5.68;;
74528;SDS011;63009;52.584;5.932;2023-04-24T08:59:21;10.60;;;4.78;;
74528;SDS011;63009;52.584;5.932;2023-04-24T09:01:47;13.15;;;4.82;;
74528;SDS011;63009;52.584;5.932;2023-04-24T09:04:14;11.25;;;4.22;;
74528;SDS011;63009;52.584;5.932;2023-04-24T09:06:41;15.82;;;5.05;;
74528;SDS011;63009;52.584;5.932;2023-04-24T09:09:07;10.75;;;4.68;;
74528;SDS011;63009;52.584;5.932;2023-04-24T09:11:33;10.63;;;4.45;;
74528;SDS011;63009;52.584;5.932;2023-04-24T09:13:58;12.63;;;4.40;;
74528;SDS011;63009;52.584;5.932;2023-04-24T09:16:25;10.93;;;4.43;;
74528;SDS011;63009;52.584;5.932;2023-04-24T09:18:51;11.90;;;4.63;;
74528;SDS011;63009;52.584;5.932;2023-04-24T09:21:16;13.48;;;3.95;;
74528;SDS011;63009;52.584;5.932;2023-04-24T09:23:42;9.48;;;3.75;;
74528;SDS011;63009;52.584;5.932;2023-04-24T09:26:08;9.63;;;3.90;;
74528;SDS011;63009;52.584;5.932;2023-04-24T09:28:36;10.75;;;4.38;;
74528;SDS011;63009;52.584;5.932;2023-04-24T09:31:12;10.00;;;3.70;;
74528;SDS011;63009;52.584;5.932;2023-04-24T09:33:40;11.77;;;3.38;;
74528;SDS011;63009;52.584;5.932;2023-04-24T09:36:19;11.60;;;3.28;;
74528;SDS011;63009;52.584;5.932;2023-04-24T09:38:53;10.30;;;3.45;;
74528;SDS011;63009;52.584;5.932;2023-04-24T09:41:22;10.10;;;3.95;;
74528;SDS011;63009;52.584;5.932;2023-04-24T09:43:47;11.20;;;2.93;;
74528;SDS011;63009;52.584;5.932;2023-04-24T09:46:12;10.67;;;3.33;;
74528;SDS011;63009;52.584;5.932;2023-04-24T09:48:38;10.77;;;3.63;;
74528;SDS011;63009;52.584;5.932;2023-04-24T09:51:04;13.35;;;4.45;;
74528;SDS011;63009;52.584;5.932;2023-04-24T09:53:32;11.82;;;3.53;;
74528;SDS011;63009;52.584;5.932;2023-04-24T09:56:15;9.98;;;3.70;;
74528;SDS011;63009;52.584;5.932;2023-04-24T09:58:40;12.63;;;3.63;;
74528;SDS011;63009;52.584;5.932;2023-04-24T10:01:06;11.98;;;2.97;;
74528;SDS011;63009;52.584;5.932;2023-04-24T10:03:32;17.63;;;3.83;;
74528;SDS011;63009;52.584;5.932;2023-04-24T10:05:59;13.65;;;2.90;;
74528;SDS011;63009;52.584;5.932;2023-04-24T10:08:33;10.15;;;3.10;;
74528;SDS011;63009;52.584;5.932;2023-04-24T10:11:00;9.50;;;2.58;;
74528;SDS011;63009;52.584;5.932;2023-04-24T10:13:26;7.22;;;2.05;;
74528;SDS011;63009;52.584;5.932;2023-04-24T10:15:51;12.27;;;3.05;;
74528;SDS011;63009;52.584;5.932;2023-04-24T10:18:17;10.75;;;2.72;;
74528;SDS011;63009;52.584;5.932;2023-04-24T10:20:43;10.35;;;2.78;;
74528;SDS011;63009;52.584;5.932;2023-04-24T10:23:09;11.40;;;2.88;;
74528;SDS011;63009;52.584;5.932;2023-04-24T10:25:36;8.95;;;2.17;;
74528;SDS011;63009;52.584;5.932;2023-04-24T10:28:02;12.07;;;2.65;;
74528;SDS011;63009;52.584;5.932;2023-04-24T10:30:29;10.73;;;2.03;;
74528;SDS011;63009;52.584;5.932;2023-04-24T10:32:57;6.93;;;1.95;;
74528;SDS011;63009;52.584;5.932;2023-04-24T10:35:22;8.67;;;2.10;;
74528;SDS011;63009;52.584;5.932;2023-04-24T10:37:55;10.57;;;2.33;;
74528;SDS011;63009;52.584;5.932;2023-04-24T10:40:27;8.23;;;2.45;;
74528;SDS011;63009;52.584;5.932;2023-04-24T10:42:55;12.82;;;2.97;;
74528;SDS011;63009;52.584;5.932;2023-04-24T10:45:22;9.52;;;2.25;;
74528;SDS011;63009;52.584;5.932;2023-04-24T10:50:25;7.63;;;2.55;;
74528;SDS011;63009;52.584;5.932;2023-04-24T10:52:52;7.57;;;2.30;;
74528;SDS011;63009;52.584;5.932;2023-04-24T10:56:21;11.88;;;2.63;;
74528;SDS011;63009;52.584;5.932;2023-04-24T10:58:22;9.20;;;1.95;;
74528;SDS011;63009;52.584;5.932;2023-04-24T11:00:58;8.00;;;1.60;;
74528;SDS011;63009;52.584;5.932;2023-04-24T11:03:29;7.07;;;1.92;;
74528;SDS011;63009;52.584;5.932;2023-04-24T11:08:32;11.23;;;2.58;;
74528;SDS011;63009;52.584;5.932;2023-04-24T11:11:14;8.25;;;2.33;;
74528;SDS011;63009;52.584;5.932;2023-04-24T11:19:00;6.45;;;2.05;;
74528;SDS011;63009;52.584;5.932;2023-04-24T11:21:59;7.45;;;1.73;;
74528;SDS011;63009;52.584;5.932;2023-04-24T11:24:30;9.00;;;1.63;;
74528;SDS011;63009;52.584;5.932;2023-04-24T11:27:17;7.22;;;2.38;;
74528;SDS011;63009;52.584;5.932;2023-04-24T11:34:54;6.18;;;1.25;;
74528;SDS011;63009;52.584;5.932;2023-04-24T11:37:20;6.75;;;1.60;;
74528;SDS011;63009;52.584;5.932;2023-04-24T11:39:49;5.68;;;1.23;;
74528;SDS011;63009;52.584;5.932;2023-04-24T11:42:15;5.80;;;1.48;;
74528;SDS011;63009;52.584;5.932;2023-04-24T11:44:41;3.90;;;1.17;;
74528;SDS011;63009;52.584;5.932;2023-04-24T11:47:07;4.13;;;1.20;;
74528;SDS011;63009;52.584;5.932;2023-04-24T11:49:33;6.45;;;1.48;;
74528;SDS011;63009;52.584;5.932;2023-04-24T11:52:01;7.80;;;1.55;;
74528;SDS011;63009;52.584;5.932;2023-04-24T11:54:26;5.72;;;1.50;;
74528;SDS011;63009;52.584;5.932;2023-04-24T11:56:52;7.53;;;1.45;;
74528;SDS011;63009;52.584;5.932;2023-04-24T11:59:17;4.53;;;1.00;;
74528;SDS011;63009;52.584;5.932;2023-04-24T12:01:46;5.07;;;1.20;;
74528;SDS011;63009;52.584;5.932;2023-04-24T12:06:37;8.40;;;1.40;;
74528;SDS011;63009;52.584;5.932;2023-04-24T12:09:02;8.90;;;1.50;;
74528;SDS011;63009;52.584;5.932;2023-04-24T12:11:28;6.13;;;1.10;;
74528;SDS011;63009;52.584;5.932;2023-04-24T12:13:54;7.93;;;1.70;;
74528;SDS011;63009;52.584;5.932;2023-04-24T12:16:19;7.00;;;1.50;;
74528;SDS011;63009;52.584;5.932;2023-04-24T12:18:45;4.60;;;1.20;;
74528;SDS011;63009;52.584;5.932;2023-04-24T12:21:20;8.50;;;1.42;;
74528;SDS011;63009;52.584;5.932;2023-04-24T12:23:47;7.03;;;1.60;;
74528;SDS011;63009;52.584;5.932;2023-04-24T12:26:19;6.53;;;1.30;;
74528;SDS011;63009;52.584;5.932;2023-04-24T12:28:46;7.60;;;1.60;;
74528;SDS011;63009;52.584;5.932;2023-04-24T12:31:14;3.85;;;1.00;;
74528;SDS011;63009;52.584;5.932;2023-04-24T12:33:39;3.53;;;1.00;;
74528;SDS011;63009;52.584;5.932;2023-04-24T12:36:05;4.77;;;1.00;;
74528;SDS011;63009;52.584;5.932;2023-04-24T12:38:31;3.08;;;0.90;;
74528;SDS011;63009;52.584;5.932;2023-04-24T12:41:05;3.20;;;1.10;;
74528;SDS011;63009;52.584;5.932;2023-04-24T12:43:32;4.32;;;0.93;;
74528;SDS011;63009;52.584;5.932;2023-04-24T12:45:57;3.90;;;1.00;;
74528;SDS011;63009;52.584;5.932;2023-04-24T12:48:24;2.03;;;0.70;;
74528;SDS011;63009;52.584;5.932;2023-04-24T12:50:50;2.10;;;0.77;;
74528;SDS011;63009;52.584;5.932;2023-04-24T12:53:15;2.17;;;0.80;;
74528;SDS011;63009;52.584;5.932;2023-04-24T12:55:41;2.45;;;0.70;;
74528;SDS011;63009;52.584;5.932;2023-04-24T12:58:06;1.73;;;0.60;;
74528;SDS011;63009;52.584;5.932;2023-04-24T13:00:32;3.33;;;0.85;;
74528;SDS011;63009;52.584;5.932;2023-04-24T13:02:57;5.10;;;1.08;;
74528;SDS011;63009;52.584;5.932;2023-04-24T13:05:23;4.30;;;1.20;;
74528;SDS011;63009;52.584;5.932;2023-04-24T13:07:48;4.30;;;1.10;;
74528;SDS011;63009;52.584;5.932;2023-04-24T13:10:13;3.03;;;1.00;;
74528;SDS011;63009;52.584;5.932;2023-04-24T13:12:39;4.10;;;1.13;;
74528;SDS011;63009;52.584;5.932;2023-04-24T13:15:05;6.15;;;1.48;;
74528;SDS011;63009;52.584;5.932;2023-04-24T13:17:31;8.23;;;1.88;;
74528;SDS011;63009;52.584;5.932;2023-04-24T13:19:56;5.53;;;1.50;;
74528;SDS011;63009;52.584;5.932;2023-04-24T13:22:21;9.60;;;1.87;;
74528;SDS011;63009;52.584;5.932;2023-04-24T13:24:47;6.72;;;1.60;;
74528;SDS011;63009;52.584;5.932;2023-04-24T13:27:15;9.35;;;2.00;;
74528;SDS011;63009;52.584;5.932;2023-04-24T13:29:41;6.63;;;1.95;;
74528;SDS011;63009;52.584;5.932;2023-04-24T13:32:07;5.57;;;1.50;;
74528;SDS011;63009;52.584;5.932;2023-04-24T13:34:33;9.25;;;1.58;;
74528;SDS011;63009;52.584;5.932;2023-04-24T13:36:59;7.78;;;2.08;;
74528;SDS011;63009;52.584;5.932;2023-04-24T13:39:25;10.38;;;1.70;;
74528;SDS011;63009;52.584;5.932;2023-04-24T13:41:51;7.55;;;1.60;;
74528;SDS011;63009;52.584;5.932;2023-04-24T13:44:16;7.70;;;1.60;;
74528;SDS011;63009;52.584;5.932;2023-04-24T13:46:43;8.32;;;1.65;;
74528;SDS011;63009;52.584;5.932;2023-04-24T13:49:11;8.07;;;1.50;;
74528;SDS011;63009;52.584;5.932;2023-04-24T13:51:37;8.32;;;1.50;;
74528;SDS011;63009;52.584;5.932;2023-04-24T13:54:03;7.85;;;1.50;;
74528;SDS011;63009;52.584;5.932;2023-04-24T13:56:28;5.85;;;1.40;;
74528;SDS011;63009;52.584;5.932;2023-04-24T13:58:54;7.83;;;1.60;;
74528;SDS011;63009;52.584;5.932;2023-04-24T14:01:19;10.35;;;1.70;;
74528;SDS011;63009;52.584;5.932;2023-04-24T14:03:49;5.15;;;1.55;;
74528;SDS011;63009;52.584;5.932;2023-04-24T14:06:14;10.88;;;2.22;;
74528;SDS011;63009;52.584;5.932;2023-04-24T14:08:40;11.68;;;2.20;;
74528;SDS011;63009;52.584;5.932;2023-04-24T14:11:05;9.82;;;2.38;;
74528;SDS011;63009;52.584;5.932;2023-04-24T14:13:30;12.17;;;2.23;;
74528;SDS011;63009;52.584;5.932;2023-04-24T14:15:56;10.75;;;2.03;;
74528;SDS011;63009;52.584;5.932;2023-04-24T14:18:21;12.10;;;2.20;;
74528;SDS011;63009;52.584;5.932;2023-04-24T14:20:47;10.77;;;2.40;;
74528;SDS011;63009;52.584;5.932;2023-04-24T14:23:12;9.13;;;2.30;;
74528;SDS011;63009;52.584;5.932;2023-04-24T14:25:37;8.98;;;2.30;;
74528;SDS011;63009;52.584;5.932;2023-04-24T14:28:02;15.17;;;2.53;;
74528;SDS011;63009;52.584;5.932;2023-04-24T14:30:28;12.40;;;3.30;;
74528;SDS011;63009;52.584;5.932;2023-04-24T14:32:53;12.25;;;2.38;;
74528;SDS011;63009;52.584;5.932;2023-04-24T14:35:18;11.57;;;2.47;;
74528;SDS011;63009;52.584;5.932;2023-04-24T14:37:44;12.50;;;2.00;;
74528;SDS011;63009;52.584;5.932;2023-04-24T14:40:09;8.77;;;2.27;;
74528;SDS011;63009;52.584;5.932;2023-04-24T14:42:35;12.38;;;2.58;;
74528;SDS011;63009;52.584;5.932;2023-04-24T14:45:00;8.70;;;1.80;;
74528;SDS011;63009;52.584;5.932;2023-04-24T14:47:26;10.80;;;2.40;;
74528;SDS011;63009;52.584;5.932;2023-04-24T14:49:51;12.65;;;2.63;;
74528;SDS011;63009;52.584;5.932;2023-04-24T14:52:17;13.98;;;2.33;;
74528;SDS011;63009;52.584;5.932;2023-04-24T14:54:42;7.73;;;1.73;;